This is the latest recevied weather packets stored in our database for station/object VE6EN. If no packets are shown the sender has not sent any weather packets the latest 1 day(s).
| Time | Temp. | Humidity | Pressure | Rain* | Wind** | Luminosity | Snow |
|---|---|---|---|---|---|---|---|
| 1778058000 | 0.56° C | 55% | 1012.5 hPa | 0 mm | - | - | - |
| 1778057397 | 1.11° C | 55% | 1012.6 hPa | 0 mm | - | - | - |
| 1778054398 | 1.11° C | 54% | 1013.2 hPa | 0 mm | - | - | - |
| 1778053798 | 1.11° C | 54% | 1013.3 hPa | 0 mm | - | - | - |
| 1778051997 | 1.67° C | 53% | 1013.7 hPa | 0 mm | - | - | - |
| 1778051398 | 1.67° C | 52% | 1013.8 hPa | 0 mm | - | - | - |
| 1778050200 | 1.67° C | 51% | 1014 hPa | 0 mm | - | - | - |
| 1778049599 | 2.22° C | 50% | 1014.2 hPa | 0 mm | - | - | - |
| 1778048999 | 2.22° C | 50% | 1014.3 hPa | 0 mm | - | - | - |
| 1778047799 | 2.78° C | 48% | 1014.5 hPa | 0 mm | - | - | - |
| 1778044800 | 3.33° C | 48% | 1014.9 hPa | 0 mm | - | - | - |
| 1778044205 | 3.33° C | 47% | 1015 hPa | 0 mm | - | - | - |
| 1778043600 | 3.89° C | 46% | 1015.1 hPa | 0 mm | - | - | - |
| 1778041799 | 4.44° C | 46% | 1015.2 hPa | 0 mm | - | - | - |
| 1778041200 | 4.44° C | 45% | 1015.3 hPa | 0 mm | - | - | - |
| 1778038206 | 5.56° C | 39% | 1015.5 hPa | 0 mm | - | - | - |
| 1778036405 | 6.67° C | 35% | 1015.4 hPa | 0 mm | - | - | - |
| 1778035800 | 7.22° C | 34% | 1015.3 hPa | 0 mm | - | - | - |
| 1778031605 | 10.56° C | 29% | 1015.3 hPa | 0 mm | - | - | - |
| 1778030999 | 10.56° C | 28% | 1015.3 hPa | 0 mm | - | - | - |
| 1778030399 | 11.11° C | 28% | 1015.5 hPa | 0 mm | - | - | - |
| 1778029799 | 11.11° C | 28% | 1015.3 hPa | 0 mm | - | - | - |
| 1778028600 | 11.11° C | 28% | 1015.5 hPa | 0 mm | - | - | - |
| 1778026805 | 11.67° C | 27% | 1015.6 hPa | 0 mm | - | - | - |
* Rain latest hour (hover to see other rain measurements)
** Current wind speed in m/s (hover to see current wind gust speed)